createdAt,value
2023-05-12T07:10:24.878Z,11.40
2023-05-12T07:15:18.424Z,11.40
2023-05-12T07:31:52.122Z,11.60
2023-05-12T07:36:45.500Z,11.40
2023-05-12T07:56:59.397Z,11.40
2023-05-12T08:01:54.080Z,11.40
2023-05-12T08:06:47.465Z,11.50
2023-05-12T08:11:40.765Z,11.50
2023-05-12T08:16:35.434Z,11.60
2023-05-12T08:21:29.361Z,11.60
2023-05-12T08:26:22.665Z,11.80
2023-05-12T08:31:16.357Z,12.10
2023-05-12T08:36:11.313Z,12.30
2023-05-12T08:41:13.996Z,12.30
2023-05-12T08:46:07.982Z,12.50
2023-05-12T08:51:02.955Z,12.50
2023-05-12T08:57:09.392Z,12.50
2023-05-12T09:01:14.939Z,12.50
2023-05-12T09:06:09.466Z,12.50
2023-05-12T09:11:04.824Z,12.50
2023-05-12T09:16:01.740Z,12.50
2023-05-12T09:20:54.991Z,12.50
2023-05-12T09:35:27.160Z,12.40
2023-05-12T09:40:20.826Z,12.20
2023-05-12T09:45:15.762Z,12.20
2023-05-12T09:50:10.294Z,12.30
2023-05-12T09:55:13.284Z,12.40
2023-05-12T10:00:16.941Z,12.50
2023-05-12T10:05:23.418Z,12.70
2023-05-12T10:10:21.145Z,13.00
2023-05-12T10:15:15.503Z,13.20
2023-05-12T10:20:10.949Z,13.40
2023-05-12T10:25:04.361Z,13.50
2023-05-12T10:30:00.382Z,13.60
2023-05-12T10:34:53.767Z,13.80
2023-05-12T10:39:51.622Z,13.90
2023-05-12T10:44:52.028Z,13.70
2023-05-12T10:49:46.858Z,13.40
2023-05-12T10:54:44.449Z,13.50
2023-05-12T10:59:38.296Z,13.60
2023-05-12T11:04:53.207Z,13.60
2023-05-12T11:09:57.849Z,13.50
2023-05-12T11:14:52.134Z,13.60
2023-05-12T11:19:47.824Z,13.70
2023-05-12T11:24:43.497Z,13.80
2023-05-12T11:29:36.890Z,14.10
2023-05-12T11:34:30.144Z,14.20
2023-05-12T11:39:24.666Z,14.10
2023-05-12T11:44:20.556Z,14.00
2023-05-12T11:49:13.822Z,13.80
2023-05-12T11:54:09.040Z,13.80
2023-05-12T11:59:02.366Z,13.80
2023-05-12T12:03:57.213Z,13.80
2023-05-12T12:08:55.202Z,13.90
2023-05-12T12:13:56.876Z,13.90
2023-05-12T12:18:50.233Z,13.90
2023-05-12T12:23:50.999Z,14.10
2023-05-12T12:28:47.074Z,14.30
2023-05-12T12:33:40.358Z,14.30
2023-05-12T12:38:33.958Z,14.30
2023-05-12T12:43:28.938Z,14.20
2023-05-12T12:48:22.349Z,13.80
2023-05-12T12:53:16.779Z,13.50
2023-05-12T12:58:10.290Z,13.20
2023-05-12T13:03:05.091Z,13.10
2023-05-12T13:07:58.361Z,13.00
2023-05-12T13:12:51.628Z,13.10
2023-05-12T13:17:46.199Z,13.10
2023-05-12T13:22:40.928Z,13.20
2023-05-12T13:27:34.251Z,13.30
2023-05-12T13:32:27.597Z,13.30
2023-05-12T13:37:20.899Z,13.40
2023-05-12T13:42:15.787Z,13.50
2023-05-12T13:47:09.054Z,13.40
2023-05-12T13:52:02.666Z,13.50
2023-05-12T13:56:56.131Z,13.50
2023-05-12T14:01:50.879Z,13.50
2023-05-12T14:06:44.353Z,13.50
2023-05-12T14:11:37.614Z,13.40
2023-05-12T14:16:30.948Z,13.30
2023-05-12T14:21:25.671Z,13.20
2023-05-12T14:26:19.363Z,13.40
2023-05-12T14:31:12.931Z,13.40
2023-05-12T14:36:08.396Z,13.40
2023-05-12T14:41:04.040Z,13.40
2023-05-12T14:45:57.685Z,13.20
2023-05-12T14:50:53.919Z,13.00
2023-05-12T14:55:47.220Z,12.90
2023-05-12T15:00:41.969Z,12.90
2023-05-12T15:05:52.638Z,13.00
2023-05-12T15:10:46.540Z,13.10
2023-05-12T15:15:41.271Z,13.20
2023-05-12T15:20:34.545Z,13.30
2023-05-12T15:25:27.892Z,13.40
2023-05-12T15:30:21.333Z,13.30
2023-05-12T15:35:16.171Z,13.30
2023-05-12T15:40:10.949Z,13.10
2023-05-12T15:45:04.883Z,13.00
2023-05-12T15:49:58.191Z,12.90
2023-05-12T15:54:52.827Z,12.90
2023-05-12T15:59:46.362Z,12.90
2023-05-12T16:04:39.614Z,12.80
2023-05-12T16:09:32.922Z,12.80
2023-05-12T16:14:27.537Z,12.80
2023-05-12T16:19:20.769Z,12.60
2023-05-12T16:24:14.027Z,12.60
2023-05-12T16:29:07.461Z,12.50
2023-05-12T16:34:03.240Z,12.40
2023-05-12T16:38:56.608Z,12.30
2023-05-12T16:43:50.077Z,12.20
2023-05-12T16:48:43.387Z,12.10
